| time (UTC) | temp C | wind direction | speed KPH | gust KPH | rain 1hr cm | rain 24hr cm | rain mn cm | humidity % | barometer mb |
| 20260506110344 | 23 | 200 | 0.0 | 0.0 | 0.00 | 0.00 | 0.00 | 99 | 1008.3 |
| 20260506110004 | 23 | 195 | 0.0 | 0.0 | 0.00 | 0.00 | 0.00 | 98 | 1012.9 |
| 20260506105841 | 23 | 187 | 0.0 | 0.0 | 0.00 | 0.00 | 0.00 | 98 | 1008.3 |
| 20260506105337 | 23 | 198 | 0.0 | 0.0 | 0.00 | 0.00 | 0.00 | 98 | 1008.4 |
| 20260506104835 | 23 | 200 | 0.0 | 0.0 | 0.00 | 0.00 | 0.00 | 98 | 1008.3 |
| 20260506104332 | 23 | 209 | 0.0 | 0.0 | 0.00 | 0.00 | 0.00 | 98 | 1008.3 |
| 20260506104004 | 23 | 201 | 0.0 | 0.0 | 0.00 | 0.00 | 0.00 | 98 | 1012.9 |
| 20260506103830 | 23 | 199 | 0.0 | 0.0 | 0.00 | 0.00 | 0.00 | 98 | 1008.3 |
| 20260506103504 | 23 | 206 | 0.0 | 0.0 | 0.00 | 0.00 | 0.00 | 98 | 1012.8 |
| 20260506103327 | 23 | 208 | 0.0 | 0.0 | 0.00 | 0.00 | 0.00 | 98 | 1008.5 |
| 20260506103004 | 23 | 186 | 0.0 | 0.0 | 0.00 | 0.00 | 0.00 | 98 | 1012.7 |
| 20260506102825 | 23 | 189 | 0.0 | 0.0 | 0.00 | 0.00 | 0.00 | 98 | 1007.9 |
| 20260506102322 | 23 | 198 | 0.0 | 0.0 | 0.00 | 0.00 | 0.00 | 97 | 1008.1 |
| 20260506101820 | 23 | 222 | 0.0 | 0.0 | 0.00 | 0.00 | 0.00 | 97 | 1008.4 |
| 20260506101504 | 23 | 216 | 0.0 | 0.0 | 0.00 | 0.00 | 0.00 | 97 | 1012.8 |
| 20260506101315 | 23 | 172 | 0.0 | 0.0 | 0.00 | 0.00 | 0.00 | 97 | 1008.4 |
| 20260506101004 | 23 | 201 | 0.0 | 0.0 | 0.00 | 0.00 | 0.00 | 97 | 1012.7 |
| 20260506100814 | 23 | 215 | 0.0 | 0.0 | 0.00 | 0.00 | 0.00 | 97 | 1008.1 |
| 20260506100504 | 23 | 206 | 0.0 | 0.0 | 0.00 | 0.00 | 0.00 | 97 | 1012.7 |
| 20260506100312 | 23 | 200 | 0.0 | 0.0 | 0.00 | 0.00 | 0.00 | 97 | 1007.9 |
| 20260506100004 | 23 | 190 | 0.0 | 0.0 | 0.00 | 0.00 | 0.00 | 97 | 1012.6 |
| 20260506095810 | 23 | 204 | 0.0 | 0.0 | 0.00 | 0.00 | 0.00 | 97 | 1008.0 |
| 20260506095306 | 23 | 200 | 0.0 | 0.0 | 0.00 | 0.00 | 0.00 | 97 | 1007.8 |
| 20260506094803 | 23 | 207 | 0.0 | 0.0 | 0.00 | 0.00 | 0.00 | 97 | 1007.8 |
| 20260506094504 | 23 | 193 | 0.0 | 0.0 | 0.00 | 0.00 | 0.00 | 97 | 1012.5 |
| 20260506094302 | 23 | 184 | 0.0 | 0.0 | 0.00 | 0.00 | 0.00 | 97 | 1008.0 |
| 20260506094004 | 23 | 198 | 0.0 | 0.0 | 0.00 | 0.00 | 0.00 | 97 | 1012.6 |
| 20260506093759 | 23 | 211 | 0.0 | 0.0 | 0.00 | 0.00 | 0.00 | 97 | 1008.1 |
| 20260506093504 | 23 | 192 | 0.0 | 0.0 | 0.00 | 0.00 | 0.00 | 97 | 1012.3 |
| 20260506093256 | 23 | 198 | 0.0 | 0.0 | 0.00 | 0.00 | 0.00 | 97 | 1008.1 |
| 20260506093005 | 23 | 225 | 0.0 | 1.6 | 0.00 | 0.00 | 0.00 | 97 | 1012.6 |
| 20260506092754 | 23 | 198 | 0.0 | 0.0 | 0.00 | 0.00 | 0.00 | 97 | 1008.2 |
| 20260506092252 | 23 | 195 | 0.0 | 0.0 | 0.00 | 0.00 | 0.00 | 97 | 1008.1 |
| 20260506091749 | 23 | 211 | 0.0 | 0.0 | 0.00 | 0.00 | 0.00 | 97 | 1008.1 |
| 20260506091504 | 23 | 189 | 0.0 | 1.6 | 0.00 | 0.00 | 0.00 | 97 | 1012.7 |
| 20260506091246 | 23 | 203 | 1.6 | 1.6 | 0.00 | 0.00 | 0.00 | 97 | 1008.0 |
| 20260506091004 | 23 | 209 | 0.0 | 3.2 | 0.00 | 0.00 | 0.00 | 97 | 1012.6 |
| 20260506090744 | 23 | 205 | 0.0 | 0.0 | 0.00 | 0.00 | 0.00 | 97 | 1007.9 |
| 20260506090241 | 23 | 195 | 0.0 | 0.0 | 0.00 | 0.00 | 0.00 | 97 | 1008.0 |
| 20260506085738 | 23 | 213 | 0.0 | 0.0 | 0.00 | 0.00 | 0.00 | 97 | 1007.9 |
| 20260506085234 | 23 | 188 | 0.0 | 0.0 | 0.00 | 0.00 | 0.00 | 97 | 1008.0 |
| 20260506084730 | 23 | 196 | 0.0 | 0.0 | 0.00 | 0.00 | 0.00 | 97 | 1007.7 |
| 20260506084504 | 23 | 193 | 1.6 | 1.6 | 0.00 | 0.00 | 0.00 | 97 | 1012.3 |
| 20260506084227 | 23 | 179 | 1.6 | 1.6 | 0.00 | 0.00 | 0.00 | 97 | 1007.7 |
| 20260506084004 | 23 | 189 | 0.0 | 1.6 | 0.00 | 0.00 | 0.00 | 97 | 1012.4 |
| 20260506083724 | 23 | 212 | 0.0 | 0.0 | 0.00 | 0.00 | 0.00 | 97 | 1007.8 |
| 20260506083504 | 23 | 175 | 0.0 | 0.0 | 0.00 | 0.00 | 0.00 | 97 | 1012.4 |
| 20260506083222 | 23 | 166 | 0.0 | 0.0 | 0.00 | 0.00 | 0.00 | 97 | 1007.7 |
| 20260506083004 | 23 | 205 | 0.0 | 1.6 | 0.00 | 0.00 | 0.00 | 97 | 1012.5 |
| 20260506082719 | 23 | 193 | 0.0 | 0.0 | 0.00 | 0.00 | 0.00 | 97 | 1007.8 |
| 20260506082214 | 23 | 195 | 0.0 | 0.0 | 0.00 | 0.00 | 0.00 | 97 | 1007.8 |
| 20260506081712 | 23 | 194 | 1.6 | 1.6 | 0.00 | 0.00 | 0.00 | 97 | 1007.7 |
| 20260506081504 | 23 | 201 | 0.0 | 1.6 | 0.00 | 0.00 | 0.00 | 97 | 1012.4 |
| 20260506081210 | 23 | 204 | 0.0 | 0.0 | 0.00 | 0.00 | 0.00 | 97 | 1007.8 |
| 20260506081004 | 23 | 189 | 0.0 | 1.6 | 0.00 | 0.00 | 0.00 | 97 | 1012.4 |
| 20260506080707 | 23 | 195 | 0.0 | 0.0 | 0.00 | 0.00 | 0.00 | 97 | 1007.9 |
| 20260506080204 | 23 | 205 | 0.0 | 0.0 | 0.00 | 0.00 | 0.00 | 97 | 1008.0 |
| 20260506073504 | 23 | 209 | 0.0 | 1.6 | 0.00 | 0.00 | 0.00 | 96 | 1012.8 |
| 20260506073148 | 23 | 205 | 0.0 | 0.0 | 0.00 | 0.00 | 0.00 | 96 | 1007.9 |
| 20260506073004 | 23 | 200 | 0.0 | 3.2 | 0.00 | 0.00 | 0.00 | 96 | 1012.4 |
| 20260506072644 | 23 | 218 | 0.0 | 1.6 | 0.00 | 0.00 | 0.00 | 96 | 1007.8 |
| 20260506072142 | 23 | 224 | 0.0 | 1.6 | 0.00 | 0.00 | 0.00 | 95 | 1007.9 |
| 20260506071640 | 23 | 196 | 0.0 | 1.6 | 0.00 | 0.00 | 0.00 | 95 | 1008.0 |
| 20260506071504 | 23 | 203 | 0.0 | 1.6 | 0.00 | 0.00 | 0.00 | 95 | 1013.0 |
| 20260506071137 | 23 | 201 | 1.6 | 1.6 | 0.00 | 0.00 | 0.00 | 95 | 1008.2 |
| 20260506071004 | 23 | 208 | 0.0 | 1.6 | 0.00 | 0.00 | 0.00 | 95 | 1012.7 |
| 20260506070634 | 23 | 183 | 0.0 | 0.0 | 0.00 | 0.00 | 0.00 | 95 | 1008.2 |
| 20260506070131 | 23 | 215 | 1.6 | 1.6 | 0.00 | 0.00 | 0.00 | 95 | 1008.3 |
| 20260506062109 | 23 | 233 | 1.6 | 1.6 | 0.00 | 0.00 | 0.00 | 94 | 1008.5 |
| 20260506061604 | 23 | 208 | 0.0 | 0.0 | 0.00 | 0.00 | 0.00 | 94 | 1008.4 |
| 20260506061504 | 23 | 211 | 1.6 | 4.8 | 0.00 | 0.00 | 0.00 | 94 | 1012.9 |
| 20260506061102 | 23 | 191 | 0.0 | 0.0 | 0.00 | 0.00 | 0.00 | 94 | 1008.2 |
| 20260506061004 | 23 | 188 | 1.6 | 3.2 | 0.00 | 0.00 | 0.00 | 94 | 1013.0 |
| 20260506060600 | 23 | 185 | 0.0 | 0.0 | 0.00 | 0.00 | 0.00 | 94 | 1008.3 |
| 20260506060504 | 23 | 198 | 0.0 | 1.6 | 0.00 | 0.00 | 0.00 | 94 | 1012.9 |
| 20260506051029 | 23 | 214 | 0.0 | 1.6 | 0.00 | 0.00 | 0.00 | 93 | 1007.9 |
| 20260506051003 | 23 | 205 | 1.6 | 3.2 | 0.00 | 0.00 | 0.00 | 93 | 1012.5 |
| 20260506050527 | 23 | 234 | 1.6 | 3.2 | 0.00 | 0.00 | 0.00 | 93 | 1007.7 |
| 20260506050503 | 23 | 180 | 3.2 | 3.2 | 0.00 | 0.00 | 0.00 | 93 | 1012.3 |
| 20260506045017 | 24 | 235 | 1.6 | 4.8 | 0.00 | 0.00 | 0.00 | 92 | 1007.5 |
| 20260506044515 | 24 | 161 | 3.2 | 3.2 | 0.00 | 0.00 | 0.00 | 92 | 1007.4 |
| 20260506044504 | 24 | 148 | 3.2 | 3.2 | 0.00 | 0.00 | 0.00 | 92 | 1012.0 |
| 20260506044012 | 24 | 146 | 1.6 | 3.2 | 0.00 | 0.00 | 0.00 | 92 | 1007.7 |
| 20260506044004 | 24 | 138 | 3.2 | 4.8 | 0.00 | 0.00 | 0.00 | 92 | 1012.3 |
| 20260506043509 | 24 | 152 | 1.6 | 3.2 | 0.00 | 0.00 | 0.00 | 92 | 1007.7 |
| 20260506043504 | 24 | 174 | 0.0 | 3.2 | 0.00 | 0.00 | 0.00 | 93 | 1012.3 |
| 20260506043007 | 24 | 185 | 0.0 | 0.0 | 0.00 | 0.00 | 0.00 | 92 | 1007.9 |
| 20260506043004 | 24 | 181 | 0.0 | 4.8 | 0.00 | 0.00 | 0.00 | 92 | 1012.4 |
| 20260506042506 | 24 | 239 | 4.8 | 4.8 | 0.00 | 0.00 | 0.00 | 92 | 1007.6 |
| 20260506042004 | 24 | 244 | 3.2 | 3.2 | 0.00 | 0.00 | 0.00 | 92 | 1007.7 |
| 20260506041504 | 24 | 205 | 1.6 | 3.2 | 0.00 | 0.00 | 0.00 | 92 | 1012.3 |
| 20260506041502 | 24 | 215 | 0.0 | 0.0 | 0.00 | 0.00 | 0.00 | 92 | 1007.7 |
| 20260506041004 | 24 | 164 | 1.6 | 3.2 | 0.00 | 0.00 | 0.00 | 92 | 1012.3 |
| 20260506040959 | 24 | 208 | 1.6 | 3.2 | 0.00 | 0.00 | 0.00 | 92 | 1007.7 |
| 20260506040503 | 24 | 182 | 3.2 | 3.2 | 0.00 | 0.00 | 0.00 | 92 | 1012.3 |
| 20260506040456 | 24 | 204 | 1.6 | 1.6 | 0.00 | 0.00 | 0.00 | 92 | 1007.8 |
| 20260506040004 | 24 | 199 | 0.0 | 3.2 | 0.00 | 0.00 | 0.00 | 92 | 1012.3 |
| 20260506035952 | 24 | 193 | 0.0 | 0.0 | 0.00 | 0.00 | 0.00 | 92 | 1007.7 |
| 20260506035449 | 24 | 215 | 0.0 | 0.0 | 0.00 | 0.00 | 0.00 | 92 | 1007.7 |
| 20260506034946 | 24 | 200 | 0.0 | 0.0 | 0.00 | 0.00 | 0.00 | 93 | 1007.6 |
| 20260506034503 | 24 | 171 | 1.6 | 3.2 | 0.00 | 0.00 | 0.00 | 93 | 1012.5 |
| 20260506034443 | 24 | 169 | 1.6 | 3.2 | 0.00 | 0.00 | 0.00 | 93 | 1008.0 |
| 20260506034004 | 24 | 193 | 0.0 | 1.6 | 0.00 | 0.00 | 0.00 | 93 | 1012.4 |
| 20260506033940 | 24 | 192 | 0.0 | 1.6 | 0.00 | 0.00 | 0.00 | 93 | 1007.8 |
| 20260506033504 | 24 | 211 | 1.6 | 3.2 | 0.00 | 0.00 | 0.00 | 93 | 1012.3 |
| 20260506033438 | 25 | 213 | 0.0 | 0.0 | 0.00 | 0.00 | 0.00 | 93 | 1007.6 |
| 20260506033004 | 24 | 210 | 1.6 | 3.2 | 0.00 | 0.00 | 0.00 | 93 | 1012.3 |
| 20260506032934 | 25 | 166 | 0.0 | 1.6 | 0.00 | 0.00 | 0.00 | 93 | 1007.8 |
| 20260506032431 | 25 | 209 | 0.0 | 0.0 | 0.00 | 0.00 | 0.00 | 93 | 1007.6 |
| 20260506031928 | 25 | 200 | 0.0 | 0.0 | 0.00 | 0.00 | 0.00 | 93 | 1007.6 |
| 20260506031503 | 24 | 219 | 0.0 | 0.0 | 0.00 | 0.00 | 0.00 | 93 | 1012.3 |
| 20260506031425 | 25 | 219 | 0.0 | 0.0 | 0.00 | 0.00 | 0.00 | 93 | 1007.7 |
| 20260506031004 | 25 | 218 | 1.6 | 3.2 | 0.00 | 0.00 | 0.00 | 93 | 1011.9 |
| 20260506030923 | 25 | 225 | 1.6 | 3.2 | 0.00 | 0.00 | 0.00 | 93 | 1007.3 |
| 20260506030421 | 25 | 200 | 1.6 | 1.6 | 0.00 | 0.00 | 0.00 | 93 | 1007.4 |
| 20260506030004 | 25 | 156 | 1.6 | 3.2 | 0.00 | 0.00 | 0.00 | 93 | 1011.8 |
| 20260506025917 | 25 | 146 | 1.6 | 1.6 | 0.00 | 0.00 | 0.00 | 93 | 1007.2 |
| 20260506025414 | 25 | 195 | 0.0 | 0.0 | 0.00 | 0.00 | 0.00 | 93 | 1007.3 |
| 20260506024911 | 25 | 180 | 1.6 | 1.6 | 0.00 | 0.00 | 0.00 | 93 | 1007.1 |
| 20260506024503 | 25 | 198 | 0.0 | 3.2 | 0.00 | 0.00 | 0.00 | 93 | 1011.7 |
| 20260506024408 | 25 | 198 | 0.0 | 0.0 | 0.00 | 0.00 | 0.00 | 93 | 1007.1 |
| 20260506024003 | 25 | 189 | 1.6 | 3.2 | 0.00 | 0.00 | 0.00 | 93 | 1011.9 |
| 20260506023904 | 25 | 220 | 0.0 | 1.6 | 0.00 | 0.00 | 0.00 | 93 | 1007.3 |
| 20260506023503 | 25 | 186 | 1.6 | 1.6 | 0.00 | 0.00 | 0.00 | 93 | 1011.7 |
| 20260506023401 | 25 | 170 | 1.6 | 1.6 | 0.00 | 0.00 | 0.00 | 93 | 1007.1 |
| 20260506023003 | 25 | 212 | 0.0 | 3.2 | 0.00 | 0.00 | 0.00 | 93 | 1011.6 |
| 20260506022857 | 25 | 215 | 0.0 | 0.0 | 0.00 | 0.00 | 0.00 | 93 | 1007.0 |
| 20260506022355 | 25 | 191 | 0.0 | 0.0 | 0.00 | 0.00 | 0.00 | 93 | 1006.8 |
| 20260506021853 | 25 | 195 | 0.0 | 0.0 | 0.00 | 0.00 | 0.00 | 93 | 1006.7 |
| 20260506021503 | 25 | 170 | 0.0 | 0.0 | 0.00 | 0.00 | 0.00 | 93 | 1011.3 |
| 20260506021350 | 25 | 158 | 0.0 | 0.0 | 0.00 | 0.00 | 0.00 | 93 | 1006.8 |
| 20260506021003 | 25 | 194 | 1.6 | 1.6 | 0.00 | 0.00 | 0.00 | 93 | 1011.3 |
| 20260506020846 | 25 | 191 | 0.0 | 0.0 | 0.00 | 0.00 | 0.00 | 93 | 1006.7 |
| 20260506020345 | 25 | 193 | 0.0 | 0.0 | 0.00 | 0.00 | 0.00 | 92 | 1006.6 |
| 20260506020004 | 25 | 202 | 0.0 | 3.2 | 0.00 | 0.00 | 0.00 | 92 | 1011.2 |
| 20260506015842 | 25 | 209 | 1.6 | 1.6 | 0.00 | 0.00 | 0.00 | 92 | 1006.6 |
| 20260506015339 | 25 | 189 | 0.0 | 1.6 | 0.00 | 0.00 | 0.00 | 92 | 1006.4 |
| 20260506014836 | 25 | 176 | 0.0 | 0.0 | 0.00 | 0.00 | 0.00 | 92 | 1006.4 |
| 20260506014503 | 25 | 235 | 0.0 | 1.6 | 0.00 | 0.00 | 0.00 | 91 | 1010.9 |
| 20260506014333 | 25 | 233 | 0.0 | 0.0 | 0.00 | 0.00 | 0.00 | 91 | 1006.3 |
| 20260506014003 | 25 | 185 | 1.6 | 1.6 | 0.00 | 0.00 | 0.00 | 91 | 1011.0 |
| 20260506013829 | 25 | 184 | 1.6 | 1.6 | 0.00 | 0.00 | 0.00 | 91 | 1006.4 |
| 20260506013503 | 25 | 196 | 1.6 | 3.2 | 0.00 | 0.00 | 0.00 | 91 | 1010.9 |
| 20260506013326 | 25 | 186 | 1.6 | 3.2 | 0.00 | 0.00 | 0.00 | 91 | 1006.0 |
| 20260506013003 | 25 | 205 | 1.6 | 1.6 | 0.00 | 0.00 | 0.00 | 91 | 1010.7 |
| 20260506012823 | 25 | 202 | 1.6 | 1.6 | 0.00 | 0.00 | 0.00 | 91 | 1006.1 |
| 20260506012320 | 25 | 189 | 0.0 | 1.6 | 0.00 | 0.00 | 0.00 | 90 | 1005.8 |
| 20260506011817 | 25 | 211 | 1.6 | 1.6 | 0.00 | 0.00 | 0.00 | 90 | 1005.6 |
| 20260506011314 | 25 | 156 | 0.0 | 0.0 | 0.00 | 0.00 | 0.00 | 89 | 1006.1 |
| 20260506011004 | 25 | 163 | 1.6 | 1.6 | 0.00 | 0.00 | 0.00 | 89 | 1010.4 |
| 20260506010811 | 25 | 194 | 0.0 | 0.0 | 0.00 | 0.00 | 0.00 | 89 | 1005.7 |
| 20260506010503 | 25 | 181 | 0.0 | 1.6 | 0.00 | 0.00 | 0.00 | 89 | 1010.4 |
| 20260506010309 | 25 | 170 | 0.0 | 0.0 | 0.00 | 0.00 | 0.00 | 89 | 1005.6 |
| 20260506010003 | 25 | 188 | 1.6 | 4.8 | 0.00 | 0.00 | 0.00 | 88 | 1010.2 |
| 20260506005806 | 25 | 206 | 3.2 | 4.8 | 0.00 | 0.00 | 0.00 | 88 | 1005.5 |
| 20260506005305 | 26 | 177 | 0.0 | 0.0 | 0.00 | 0.00 | 0.00 | 88 | 1005.5 |
| 20260506004758 | 26 | 245 | 1.6 | 3.2 | 0.00 | 0.00 | 0.00 | 87 | 1005.4 |
| 20260506004504 | 26 | 172 | 3.2 | 4.8 | 0.00 | 0.00 | 0.00 | 87 | 1010.4 |
| 20260506004257 | 26 | 228 | 1.6 | 3.2 | 0.00 | 0.00 | 0.00 | 87 | 1005.4 |
| 20260506004004 | 26 | 183 | 1.6 | 3.2 | 0.00 | 0.00 | 0.00 | 86 | 1010.0 |
| 20260506003752 | 26 | 180 | 1.6 | 1.6 | 0.00 | 0.00 | 0.00 | 86 | 1005.4 |
| 20260506003504 | 26 | 195 | 0.0 | 3.2 | 0.00 | 0.00 | 0.00 | 86 | 1010.0 |
| 20260506003249 | 26 | 149 | 0.0 | 1.6 | 0.00 | 0.00 | 0.00 | 86 | 1005.5 |
| 20260506003004 | 26 | 178 | 1.6 | 3.2 | 0.00 | 0.00 | 0.00 | 86 | 1009.9 |
| 20260506002745 | 26 | 195 | 1.6 | 1.6 | 0.00 | 0.00 | 0.00 | 86 | 1005.3 |
| 20260506002241 | 26 | 157 | 3.2 | 3.2 | 0.00 | 0.00 | 0.00 | 85 | 1005.1 |
| 20260506001737 | 26 | 208 | 0.0 | 1.6 | 0.00 | 0.00 | 0.00 | 85 | 1005.1 |
| 20260506001504 | 26 | 194 | 0.0 | 1.6 | 0.00 | 0.00 | 0.00 | 85 | 1010.1 |
| 20260506001235 | 26 | 194 | 0.0 | 1.6 | 0.00 | 0.00 | 0.00 | 84 | 1005.3 |
| 20260506001004 | 26 | 199 | 0.0 | 1.6 | 0.00 | 0.00 | 0.00 | 84 | 1009.9 |
| 20260506000732 | 26 | 188 | 0.0 | 0.0 | 0.00 | 0.00 | 0.00 | 84 | 1005.4 |
| 20260506000504 | 26 | 222 | 1.6 | 1.6 | 0.00 | 0.00 | 0.00 | 83 | 1010.2 |
| 20260506000229 | 26 | 193 | 0.0 | 1.6 | 0.00 | 0.00 | 0.00 | 83 | 1005.4 |
| 20260506000004 | 27 | 178 | 1.6 | 1.6 | 0.00 | 0.00 | 0.00 | 83 | 1010.3 |
| 20260505235726 | 27 | 174 | 1.6 | 1.6 | 0.00 | 0.00 | 0.00 | 83 | 1005.5 |
| 20260505235224 | 27 | 218 | 0.0 | 0.0 | 0.00 | 0.00 | 0.00 | 83 | 1005.5 |
| 20260505234720 | 27 | 200 | 0.0 | 0.0 | 0.00 | 0.00 | 0.00 | 82 | 1005.6 |
| 20260505234504 | 27 | 224 | 1.6 | 3.2 | 0.00 | 0.00 | 0.00 | 82 | 1010.2 |
| 20260505234218 | 27 | 217 | 0.0 | 0.0 | 0.00 | 0.00 | 0.00 | 82 | 1005.4 |
| 20260505234004 | 27 | 178 | 1.6 | 3.2 | 0.00 | 0.00 | 0.00 | 82 | 1010.1 |
| 20260505233714 | 27 | 212 | 0.0 | 0.0 | 0.00 | 0.00 | 0.00 | 82 | 1005.3 |
| 20260505233504 | 27 | 171 | 3.2 | 3.2 | 0.00 | 0.00 | 0.00 | 82 | 1010.0 |
| 20260505233212 | 27 | 217 | 1.6 | 1.6 | 0.00 | 0.00 | 0.00 | 82 | 1005.3 |
| 20260505233004 | 27 | 157 | 1.6 | 3.2 | 0.00 | 0.00 | 0.00 | 81 | 1010.1 |
| 20260505232709 | 27 | 214 | 0.0 | 0.0 | 0.00 | 0.00 | 0.00 | 82 | 1005.3 |
| 20260505232207 | 27 | 162 | 1.6 | 1.6 | 0.00 | 0.00 | 0.00 | 82 | 1005.3 |
| 20260505231703 | 27 | 247 | 1.6 | 3.2 | 0.00 | 0.00 | 0.00 | 82 | 1005.2 |
| 20260505231503 | 27 | 175 | 1.6 | 3.2 | 0.00 | 0.00 | 0.00 | 82 | 1010.0 |
| 20260505231203 | 27 | 194 | 0.0 | 0.0 | 0.00 | 0.00 | 0.00 | 82 | 1005.4 |
| 20260505230700 | 27 | 149 | 1.6 | 3.2 | 0.00 | 0.00 | 0.00 | 81 | 1005.5 |
| 20260505230503 | 27 | 215 | 3.2 | 8.0 | 0.00 | 0.00 | 0.00 | 81 | 1010.2 |
| 20260505230156 | 27 | 175 | 0.0 | 1.6 | 0.00 | 0.00 | 0.00 | 81 | 1005.6 |
| 20260505230004 | 27 | 185 | 0.0 | 3.2 | 0.00 | 0.00 | 0.00 | 80 | 1010.1 |
| 20260505225653 | 27 | 174 | 0.0 | 0.0 | 0.00 | 0.00 | 0.00 | 80 | 1005.6 |
| 20260505225149 | 27 | 165 | 0.0 | 1.6 | 0.00 | 0.00 | 0.00 | 80 | 1005.8 |
| 20260505224645 | 27 | 161 | 0.0 | 0.0 | 0.00 | 0.00 | 0.00 | 80 | 1005.4 |
| 20260505224143 | 27 | 267 | 4.8 | 8.0 | 0.00 | 0.00 | 0.00 | 79 | 1005.5 |
| 20260505224004 | 27 | 207 | 1.6 | 3.2 | 0.00 | 0.00 | 0.00 | 79 | 1010.1 |
| 20260505223635 | 27 | 156 | 0.0 | 1.6 | 0.00 | 0.00 | 0.00 | 79 | 1005.6 |
| 20260505223504 | 27 | 182 | 0.0 | 3.2 | 0.00 | 0.00 | 0.00 | 79 | 1010.4 |
| 20260505223130 | 28 | 188 | 0.0 | 1.6 | 0.00 | 0.00 | 0.00 | 78 | 1005.7 |
| 20260505222627 | 28 | 205 | 0.0 | 0.0 | 0.00 | 0.00 | 0.00 | 76 | 1005.5 |
| 20260505222123 | 28 | 235 | 4.8 | 4.8 | 0.00 | 0.00 | 0.00 | 75 | 1005.3 |
| 20260505221620 | 28 | 195 | 0.0 | 0.0 | 0.00 | 0.00 | 0.00 | 76 | 1005.5 |
| 20260505221504 | 28 | 226 | 1.6 | 3.2 | 0.00 | 0.00 | 0.00 | 76 | 1010.2 |
| 20260505221117 | 28 | 229 | 0.0 | 0.0 | 0.00 | 0.00 | 0.00 | 76 | 1005.3 |
| 20260505221003 | 28 | 205 | 0.0 | 1.6 | 0.00 | 0.00 | 0.00 | 76 | 1010.0 |
| 20260505220614 | 28 | 210 | 0.0 | 1.6 | 0.00 | 0.00 | 0.00 | 76 | 1005.3 |
| 20260505220504 | 28 | 185 | 1.6 | 4.8 | 0.00 | 0.00 | 0.00 | 75 | 1010.1 |
| 20260505220112 | 28 | 190 | 0.0 | 1.6 | 0.00 | 0.00 | 0.00 | 75 | 1005.3 |
| 20260505220004 | 28 | 188 | 3.2 | 8.0 | 0.00 | 0.00 | 0.00 | 74 | 1010.1 |
| 20260505215609 | 28 | 173 | 3.2 | 3.2 | 0.00 | 0.00 | 0.00 | 75 | 1005.4 |
| 20260505215107 | 28 | 180 | 1.6 | 1.6 | 0.00 | 0.00 | 0.00 | 77 | 1005.4 |
| 20260505214605 | 28 | 202 | 1.6 | 3.2 | 0.00 | 0.00 | 0.00 | 77 | 1005.3 |
| 20260505214503 | 28 | 215 | 1.6 | 8.0 | 0.00 | 0.00 | 0.00 | 77 | 1009.9 |
| 20260505214102 | 28 | 170 | 1.6 | 1.6 | 0.00 | 0.00 | 0.00 | 76 | 1005.3 |
| 20260505214003 | 28 | 217 | 1.6 | 8.0 | 0.00 | 0.00 | 0.00 | 75 | 1009.9 |
| 20260505213600 | 28 | 191 | 0.0 | 0.0 | 0.00 | 0.00 | 0.00 | 75 | 1005.4 |
| 20260505213503 | 28 | 227 | 3.2 | 8.0 | 0.00 | 0.00 | 0.00 | 72 | 1009.8 |
| 20260505213056 | 28 | 337 | 1.6 | 1.6 | 0.00 | 0.00 | 0.00 | 74 | 1005.3 |
| 20260505213003 | 28 | 212 | 1.6 | 4.8 | 0.00 | 0.00 | 0.00 | 74 | 1010.0 |
| 20260505212552 | 28 | 211 | 0.0 | 1.6 | 0.00 | 0.00 | 0.00 | 74 | 1005.2 |
| 20260505212050 | 28 | 216 | 1.6 | 1.6 | 0.00 | 0.00 | 0.00 | 75 | 1005.2 |
| 20260505211546 | 28 | 229 | 4.8 | 4.8 | 0.00 | 0.00 | 0.00 | 74 | 1005.5 |
| 20260505211504 | 28 | 204 | 1.6 | 3.2 | 0.00 | 0.00 | 0.00 | 74 | 1010.2 |
| 20260505211043 | 28 | 25 | 1.6 | 3.2 | 0.00 | 0.00 | 0.00 | 76 | 1005.7 |
| 20260505211004 | 28 | 182 | 3.2 | 8.0 | 0.00 | 0.00 | 0.00 | 77 | 1010.2 |
| 20260505210540 | 28 | 200 | 0.0 | 1.6 | 0.00 | 0.00 | 0.00 | 77 | 1005.5 |
| 20260505210504 | 28 | 192 | 1.6 | 3.2 | 0.00 | 0.00 | 0.00 | 77 | 1010.3 |
| 20260505210037 | 28 | 216 | 0.0 | 0.0 | 0.00 | 0.00 | 0.00 | 77 | 1005.8 |
| 20260505210003 | 28 | 216 | 1.6 | 11.3 | 0.00 | 0.00 | 0.00 | 77 | 1010.5 |
| 20260505205535 | 28 | 185 | 1.6 | 3.2 | 0.00 | 0.00 | 0.00 | 78 | 1005.7 |
| 20260505205032 | 28 | 306 | 8.0 | 9.7 | 0.00 | 0.00 | 0.00 | 77 | 1005.8 |
| 20260505204530 | 28 | 200 | 1.6 | 1.6 | 0.00 | 0.00 | 0.00 | 77 | 1006.1 |
| 20260505204503 | 28 | 254 | 1.6 | 4.8 | 0.00 | 0.00 | 0.00 | 78 | 1010.5 |
| 20260505204027 | 28 | 358 | 1.6 | 1.6 | 0.00 | 0.00 | 0.00 | 78 | 1005.9 |
| 20260505203523 | 28 | 178 | 3.2 | 4.8 | 0.00 | 0.00 | 0.00 | 78 | 1006.1 |
| 20260505203504 | 28 | 188 | 0.0 | 4.8 | 0.00 | 0.00 | 0.00 | 78 | 1010.7 |
| 20260505203020 | 28 | 235 | 1.6 | 3.2 | 0.00 | 0.00 | 0.00 | 78 | 1006.1 |
| 20260505203004 | 28 | 248 | 1.6 | 8.0 | 0.00 | 0.00 | 0.00 | 77 | 1010.7 |
| 20260505202516 | 28 | 223 | 1.6 | 1.6 | 0.00 | 0.00 | 0.00 | 76 | 1006.1 |
| 20260505202012 | 28 | 221 | 1.6 | 1.6 | 0.00 | 0.00 | 0.00 | 76 | 1006.0 |
| 20260505201510 | 28 | 196 | 1.6 | 3.2 | 0.00 | 0.00 | 0.00 | 76 | 1006.2 |
| 20260505201503 | 28 | 142 | 3.2 | 9.7 | 0.00 | 0.00 | 0.00 | 76 | 1011.0 |
| 20260505201007 | 28 | 222 | 1.6 | 1.6 | 0.00 | 0.00 | 0.00 | 76 | 1006.2 |
| 20260505201003 | 28 | 182 | 1.6 | 3.2 | 0.00 | 0.00 | 0.00 | 76 | 1011.0 |
| 20260505200505 | 28 | 350 | 3.2 | 3.2 | 0.00 | 0.00 | 0.00 | 76 | 1006.3 |
| 20260505200503 | 28 | 261 | 3.2 | 4.8 | 0.00 | 0.00 | 0.00 | 76 | 1010.9 |
| 20260505200004 | 28 | 205 | 1.6 | 8.0 | 0.00 | 0.00 | 0.00 | 76 | 1011.1 |
| 20260505200001 | 28 | 216 | 0.0 | 1.6 | 0.00 | 0.00 | 0.00 | 77 | 1006.2 |
| 20260505195458 | 28 | 206 | 1.6 | 1.6 | 0.00 | 0.00 | 0.00 | 78 | 1006.5 |
| 20260505194955 | 27 | 180 | 3.2 | 3.2 | 0.00 | 0.00 | 0.00 | 78 | 1006.2 |
| 20260505194504 | 28 | 224 | 4.8 | 9.7 | 0.00 | 0.00 | 0.00 | 77 | 1011.1 |
| 20260505194452 | 28 | 214 | 3.2 | 4.8 | 0.00 | 0.00 | 0.00 | 76 | 1006.3 |
| 20260505194004 | 27 | 191 | 1.6 | 8.0 | 0.00 | 0.00 | 0.00 | 78 | 1011.2 |
| 20260505193952 | 28 | 187 | 3.2 | 3.2 | 0.00 | 0.00 | 0.00 | 77 | 1006.5 |
| 20260505193503 | 28 | 123 | 3.2 | 11.3 | 0.00 | 0.00 | 0.00 | 77 | 1011.3 |
| 20260505193450 | 28 | 117 | 6.4 | 8.0 | 0.00 | 0.00 | 0.00 | 76 | 1006.7 |
| 20260505193004 | 28 | 169 | 3.2 | 12.9 | 0.00 | 0.00 | 0.00 | 78 | 1011.1 |
| 20260505192947 | 28 | 241 | 4.8 | 8.0 | 0.00 | 0.00 | 0.00 | 78 | 1006.5 |
| 20260505192446 | 27 | 256 | 6.4 | 8.0 | 0.00 | 0.00 | 0.00 | 80 | 1006.8 |
| 20260505191943 | 27 | 212 | 1.6 | 3.2 | 0.00 | 0.00 | 0.00 | 80 | 1006.6 |
| 20260505191442 | 27 | 168 | 1.6 | 3.2 | 0.00 | 0.00 | 0.00 | 80 | 1006.9 |
| 20260505191004 | 27 | 194 | 3.2 | 9.7 | 0.00 | 0.00 | 0.00 | 78 | 1011.3 |
| 20260505190938 | 27 | 187 | 1.6 | 3.2 | 0.00 | 0.00 | 0.00 | 79 | 1006.7 |
| 20260505190433 | 27 | 252 | 3.2 | 3.2 | 0.00 | 0.00 | 0.00 | 78 | 1006.7 |
| 20260505190004 | 27 | 195 | 1.6 | 8.0 | 0.00 | 0.00 | 0.00 | 80 | 1011.4 |
| 20260505185929 | 27 | 183 | 3.2 | 3.2 | 0.00 | 0.00 | 0.00 | 79 | 1006.6 |
| 20260505185427 | 27 | 229 | 0.0 | 1.6 | 0.00 | 0.00 | 0.00 | 81 | 1006.7 |
| 20260505184922 | 26 | 228 | 0.0 | 1.6 | 0.00 | 0.00 | 0.00 | 83 | 1006.9 |
| 20260505184503 | 26 | 250 | 3.2 | 8.0 | 0.00 | 0.00 | 0.00 | 81 | 1011.5 |
| 20260505184420 | 26 | 252 | 3.2 | 3.2 | 0.00 | 0.00 | 0.00 | 81 | 1006.8 |
| 20260505184003 | 26 | 200 | 0.0 | 3.2 | 0.00 | 0.00 | 0.00 | 82 | 1011.7 |
| 20260505183916 | 26 | 224 | 0.0 | 1.6 | 0.00 | 0.00 | 0.00 | 82 | 1007.1 |
| 20260505183503 | 26 | 184 | 3.2 | 8.0 | 0.00 | 0.00 | 0.00 | 82 | 1011.7 |
| 20260505183413 | 26 | 169 | 4.8 | 8.0 | 0.00 | 0.00 | 0.00 | 82 | 1007.0 |
| 20260505183004 | 26 | 218 | 0.0 | 4.8 | 0.00 | 0.00 | 0.00 | 84 | 1011.6 |
| 20260505182910 | 26 | 215 | 0.0 | 1.6 | 0.00 | 0.00 | 0.00 | 84 | 1007.0 |
| 20260505182407 | 26 | 132 | 1.6 | 4.8 | 0.00 | 0.00 | 0.00 | 83 | 1007.4 |
| 20260505181903 | 26 | 202 | 3.2 | 4.8 | 0.00 | 0.00 | 0.00 | 82 | 1007.3 |
| 20260505181504 | 26 | 226 | 1.6 | 4.8 | 0.00 | 0.00 | 0.00 | 83 | 1011.8 |
| 20260505181400 | 26 | 227 | 3.2 | 3.2 | 0.00 | 0.00 | 0.00 | 83 | 1007.2 |
| 20260505181003 | 26 | 181 | 1.6 | 4.8 | 0.00 | 0.00 | 0.00 | 83 | 1011.8 |
| 20260505180857 | 26 | 201 | 0.0 | 1.6 | 0.00 | 0.00 | 0.00 | 83 | 1007.2 |
| 20260505180503 | 26 | 218 | 1.6 | 3.2 | 0.00 | 0.00 | 0.00 | 82 | 1011.9 |
| 20260505180353 | 26 | 212 | 1.6 | 1.6 | 0.00 | 0.00 | 0.00 | 83 | 1007.2 |
| 20260505180003 | 26 | 181 | 1.6 | 4.8 | 0.00 | 0.00 | 0.00 | 83 | 1012.0 |
| 20260505175850 | 26 | 195 | 1.6 | 1.6 | 0.00 | 0.00 | 0.00 | 83 | 1007.4 |
| 20260505175347 | 26 | 241 | 1.6 | 1.6 | 0.00 | 0.00 | 0.00 | 85 | 1007.4 |
| 20260505174843 | 25 | 180 | 1.6 | 1.6 | 0.00 | 0.00 | 0.00 | 85 | 1007.4 |
| 20260505174504 | 25 | 207 | 1.6 | 3.2 | 0.00 | 0.00 | 0.00 | 85 | 1012.2 |
| 20260505174341 | 25 | 212 | 1.6 | 3.2 | 0.00 | 0.00 | 0.00 | 85 | 1007.5 |
| 20260505174003 | 25 | 195 | 1.6 | 3.2 | 0.00 | 0.00 | 0.00 | 86 | 1012.2 |
| 20260505173836 | 25 | 194 | 1.6 | 1.6 | 0.00 | 0.00 | 0.00 | 86 | 1007.6 |
| 20260505173504 | 25 | 237 | 3.2 | 4.8 | 0.00 | 0.00 | 0.00 | 85 | 1012.4 |
| 20260505173333 | 25 | 248 | 4.8 | 4.8 | 0.00 | 0.00 | 0.00 | 85 | 1007.9 |
| 20260505173004 | 25 | 219 | 1.6 | 8.0 | 0.00 | 0.00 | 0.00 | 86 | 1012.5 |
| 20260505172830 | 25 | 218 | 0.0 | 1.6 | 0.00 | 0.00 | 0.00 | 86 | 1007.9 |
| 20260505172328 | 25 | 213 | 1.6 | 1.6 | 0.00 | 0.00 | 0.00 | 86 | 1007.7 |
| 20260505171827 | 25 | 184 | 1.6 | 1.6 | 0.00 | 0.00 | 0.00 | 86 | 1007.6 |
| 20260505171503 | 25 | 183 | 1.6 | 4.8 | 0.00 | 0.00 | 0.00 | 85 | 1012.6 |
| 20260505171325 | 25 | 209 | 1.6 | 1.6 | 0.00 | 0.00 | 0.00 | 86 | 1007.8 |
| 20260505171004 | 25 | 221 | 1.6 | 4.8 | 0.00 | 0.00 | 0.00 | 86 | 1012.3 |
| 20260505170821 | 25 | 184 | 1.6 | 1.6 | 0.00 | 0.00 | 0.00 | 86 | 1007.7 |
| 20260505170504 | 25 | 204 | 1.6 | 3.2 | 0.00 | 0.00 | 0.00 | 86 | 1012.4 |
| 20260505170318 | 25 | 187 | 1.6 | 1.6 | 0.00 | 0.00 | 0.00 | 86 | 1007.7 |
| 20260505165813 | 25 | 220 | 3.2 | 4.8 | 0.00 | 0.00 | 0.00 | 86 | 1007.7 |
| 20260505165309 | 25 | 203 | 3.2 | 3.2 | 0.00 | 0.00 | 0.00 | 86 | 1007.6 |
| 20260505164805 | 25 | 237 | 1.6 | 4.8 | 0.00 | 0.00 | 0.00 | 85 | 1007.7 |
| 20260505164504 | 25 | 202 | 1.6 | 3.2 | 0.00 | 0.00 | 0.00 | 86 | 1012.5 |
| 20260505164302 | 25 | 212 | 1.6 | 1.6 | 0.00 | 0.00 | 0.00 | 87 | 1007.8 |
| 20260505164004 | 24 | 175 | 3.2 | 8.0 | 0.00 | 0.00 | 0.00 | 87 | 1012.4 |
| 20260505163800 | 25 | 173 | 4.8 | 8.0 | 0.00 | 0.00 | 0.00 | 86 | 1008.0 |
| 20260505163504 | 24 | 259 | 3.2 | 8.0 | 0.00 | 0.00 | 0.00 | 86 | 1012.5 |
| 20260505163259 | 25 | 164 | 1.6 | 1.6 | 0.00 | 0.00 | 0.00 | 86 | 1007.8 |
| 20260505163005 | 24 | 175 | 1.6 | 4.8 | 0.00 | 0.00 | 0.00 | 87 | 1012.5 |
| 20260505162756 | 24 | 206 | 1.6 | 1.6 | 0.00 | 0.00 | 0.00 | 87 | 1008.2 |
| 20260505162253 | 24 | 253 | 3.2 | 3.2 | 0.00 | 0.00 | 0.00 | 88 | 1007.8 |
| 20260505161750 | 24 | 152 | 3.2 | 3.2 | 0.00 | 0.00 | 0.00 | 88 | 1007.7 |
| 20260505161504 | 23 | 208 | 1.6 | 4.8 | 0.00 | 0.00 | 0.00 | 88 | 1012.3 |
| 20260505161247 | 23 | 201 | 1.6 | 1.6 | 0.00 | 0.00 | 0.00 | 88 | 1007.6 |
| 20260505161004 | 23 | 147 | 3.2 | 3.2 | 0.00 | 0.00 | 0.00 | 88 | 1012.4 |
| 20260505160744 | 23 | 219 | 0.0 | 0.0 | 0.00 | 0.00 | 0.00 | 88 | 1007.6 |
| 20260505160503 | 23 | 202 | 1.6 | 3.2 | 0.00 | 0.00 | 0.00 | 89 | 1012.5 |
| 20260505160242 | 23 | 216 | 1.6 | 1.6 | 0.00 | 0.00 | 0.00 | 89 | 1007.7 |
| 20260505153221 | 23 | 204 | 0.0 | 1.6 | 0.00 | 0.00 | 0.00 | 90 | 1007.5 |
| 20260505153004 | 23 | 128 | 1.6 | 3.2 | 0.00 | 0.00 | 0.00 | 90 | 1012.1 |
| 20260505152718 | 23 | 176 | 0.0 | 0.0 | 0.00 | 0.00 | 0.00 | 90 | 1007.6 |
| 20260505152214 | 23 | 215 | 1.6 | 1.6 | 0.00 | 0.00 | 0.00 | 91 | 1007.6 |
| 20260505151709 | 22 | 147 | 3.2 | 3.2 | 0.00 | 0.00 | 0.00 | 91 | 1007.7 |
| 20260505151207 | 22 | 214 | 1.6 | 1.6 | 0.00 | 0.00 | 0.00 | 92 | 1007.9 |
| 20260505151004 | 22 | 162 | 3.2 | 4.8 | 0.00 | 0.00 | 0.00 | 91 | 1012.1 |
| 20260505150703 | 22 | 237 | 3.2 | 3.2 | 0.00 | 0.00 | 0.00 | 92 | 1007.7 |
| 20260505150503 | 22 | 215 | 1.6 | 9.7 | 0.00 | 0.00 | 0.00 | 92 | 1012.4 |
| 20260505150200 | 22 | 239 | 8.0 | 9.7 | 0.00 | 0.00 | 0.00 | 91 | 1007.8 |
| 20260505140628 | 21 | 179 | 0.0 | 0.0 | 0.00 | 0.00 | 0.00 | 94 | 1007.8 |
| 20260505140125 | 21 | 189 | 0.0 | 1.6 | 0.00 | 0.00 | 0.00 | 94 | 1007.6 |
| 20260505125041 | 20 | 207 | 0.0 | 0.0 | 0.00 | 0.00 | 0.00 | 95 | 1007.5 |
| 20260505124538 | 20 | 224 | 1.6 | 1.6 | 0.00 | 0.00 | 0.00 | 95 | 1007.4 |
| 20260505124504 | 20 | 197 | 0.0 | 1.6 | 0.00 | 0.00 | 0.00 | 95 | 1011.8 |
| 20260505124034 | 20 | 180 | 1.6 | 1.6 | 0.00 | 0.00 | 0.00 | 95 | 1007.2 |
| 20260505124004 | 20 | 186 | 0.0 | 1.6 | 0.00 | 0.00 | 0.00 | 95 | 1011.7 |
| 20260505123531 | 20 | 195 | 0.0 | 0.0 | 0.00 | 0.00 | 0.00 | 95 | 1007.1 |
| 20260505123503 | 20 | 210 | 1.6 | 3.2 | 0.00 | 0.00 | 0.00 | 95 | 1011.7 |
| 20260505123027 | 20 | 207 | 0.0 | 1.6 | 0.00 | 0.00 | 0.00 | 95 | 1007.3 |
| 20260505122524 | 20 | 200 | 1.6 | 1.6 | 0.00 | 0.00 | 0.00 | 95 | 1007.3 |
| 20260505122021 | 20 | 178 | 3.2 | 3.2 | 0.00 | 0.00 | 0.00 | 95 | 1007.3 |
| 20260505121517 | 20 | 211 | 0.0 | 1.6 | 0.00 | 0.00 | 0.00 | 95 | 1007.4 |
| 20260505121504 | 20 | 208 | 0.0 | 3.2 | 0.00 | 0.00 | 0.00 | 95 | 1011.8 |
| 20260505121014 | 20 | 198 | 0.0 | 0.0 | 0.00 | 0.00 | 0.00 | 95 | 1007.2 |
| 20260505121004 | 20 | 170 | 1.6 | 3.2 | 0.00 | 0.00 | 0.00 | 95 | 1011.9 |
| 20260505120511 | 20 | 204 | 1.6 | 3.2 | 0.00 | 0.00 | 0.00 | 95 | 1007.4 |
| 20260505120504 | 20 | 201 | 1.6 | 3.2 | 0.00 | 0.00 | 0.00 | 95 | 1012.0 |
| 20260505120006 | 20 | 193 | 1.6 | 1.6 | 0.00 | 0.00 | 0.00 | 95 | 1007.0 |
| 20260505120004 | 20 | 186 | 1.6 | 3.2 | 0.00 | 0.00 | 0.00 | 95 | 1011.6 |
| 20260505115501 | 20 | 146 | 0.0 | 1.6 | 0.00 | 0.00 | 0.00 | 95 | 1007.0 |
| 20260505114959 | 20 | 219 | 0.0 | 1.6 | 0.00 | 0.00 | 0.00 | 95 | 1007.0 |
| 20260505114455 | 20 | 251 | 1.6 | 1.6 | 0.00 | 0.00 | 0.00 | 95 | 1007.1 |
| 20260505114004 | 20 | 177 | 1.6 | 3.2 | 0.00 | 0.00 | 0.00 | 95 | 1011.6 |
| 20260505113952 | 20 | 191 | 0.0 | 1.6 | 0.00 | 0.00 | 0.00 | 95 | 1007.0 |
| 20260505113449 | 20 | 205 | 1.6 | 1.6 | 0.00 | 0.00 | 0.00 | 95 | 1007.0 |
| 20260505113004 | 20 | 199 | 1.6 | 4.8 | 0.00 | 0.00 | 0.00 | 95 | 1011.8 |
| 20260505112944 | 20 | 168 | 0.0 | 1.6 | 0.00 | 0.00 | 0.00 | 95 | 1007.1 |
| 20260505112442 | 20 | 198 | 0.0 | 1.6 | 0.00 | 0.00 | 0.00 | 95 | 1007.3 |
| 20260505111938 | 20 | 189 | 0.0 | 0.0 | 0.00 | 0.00 | 0.00 | 95 | 1007.0 |
| 20260505111504 | 20 | 199 | 1.6 | 3.2 | 0.00 | 0.00 | 0.00 | 95 | 1011.7 |
| 20260505111432 | 20 | 175 | 1.6 | 1.6 | 0.00 | 0.00 | 0.00 | 95 | 1006.9 |
| 20260505111004 | 20 | 172 | 1.6 | 3.2 | 0.00 | 0.00 | 0.00 | 95 | 1011.7 |
| 20260505110929 | 20 | 168 | 0.0 | 1.6 | 0.00 | 0.00 | 0.00 | 95 | 1006.9 |